sensor_id;sensor_type;location;lat;lon;timestamp;P1;durP1;ratioP1;P2;durP2;ratioP2
20026;SDS011;10174;42.688;23.344;2022-10-31T00:01:31;10.25;;;5.10;;
20026;SDS011;10174;42.688;23.344;2022-10-31T00:04:01;9.15;;;5.13;;
20026;SDS011;10174;42.688;23.344;2022-10-31T00:06:26;13.38;;;5.60;;
20026;SDS011;10174;42.688;23.344;2022-10-31T00:11:19;12.98;;;4.93;;
20026;SDS011;10174;42.688;23.344;2022-10-31T00:16:16;11.75;;;5.32;;
20026;SDS011;10174;42.688;23.344;2022-10-31T00:18:43;14.13;;;5.40;;
20026;SDS011;10174;42.688;23.344;2022-10-31T00:21:09;12.25;;;5.25;;
20026;SDS011;10174;42.688;23.344;2022-10-31T00:23:34;11.85;;;5.35;;
20026;SDS011;10174;42.688;23.344;2022-10-31T00:28:29;11.50;;;5.65;;
20026;SDS011;10174;42.688;23.344;2022-10-31T00:30:59;11.95;;;5.28;;
20026;SDS011;10174;42.688;23.344;2022-10-31T00:33:28;12.30;;;5.85;;
20026;SDS011;10174;42.688;23.344;2022-10-31T00:35:54;18.73;;;6.88;;
20026;SDS011;10174;42.688;23.344;2022-10-31T00:38:19;13.52;;;6.55;;
20026;SDS011;10174;42.688;23.344;2022-10-31T00:40:45;10.70;;;5.07;;
20026;SDS011;10174;42.688;23.344;2022-10-31T00:45:36;14.07;;;5.70;;
20026;SDS011;10174;42.688;23.344;2022-10-31T00:48:01;12.45;;;5.32;;
20026;SDS011;10174;42.688;23.344;2022-10-31T00:50:27;15.43;;;5.40;;
20026;SDS011;10174;42.688;23.344;2022-10-31T00:52:52;13.30;;;5.60;;
20026;SDS011;10174;42.688;23.344;2022-10-31T00:55:17;12.70;;;5.68;;
20026;SDS011;10174;42.688;23.344;2022-10-31T00:57:45;12.63;;;5.78;;
20026;SDS011;10174;42.688;23.344;2022-10-31T01:00:11;15.02;;;6.00;;
20026;SDS011;10174;42.688;23.344;2022-10-31T01:02:37;15.75;;;6.43;;
20026;SDS011;10174;42.688;23.344;2022-10-31T01:05:02;9.50;;;5.40;;
20026;SDS011;10174;42.688;23.344;2022-10-31T01:07:28;13.88;;;5.65;;
20026;SDS011;10174;42.688;23.344;2022-10-31T01:09:53;11.57;;;6.00;;
20026;SDS011;10174;42.688;23.344;2022-10-31T01:12:19;12.18;;;6.05;;
20026;SDS011;10174;42.688;23.344;2022-10-31T01:14:44;12.13;;;6.15;;
20026;SDS011;10174;42.688;23.344;2022-10-31T01:17:10;14.07;;;6.43;;
20026;SDS011;10174;42.688;23.344;2022-10-31T01:19:36;13.55;;;6.47;;
20026;SDS011;10174;42.688;23.344;2022-10-31T01:22:02;13.60;;;6.45;;
20026;SDS011;10174;42.688;23.344;2022-10-31T01:24:27;11.38;;;6.32;;
20026;SDS011;10174;42.688;23.344;2022-10-31T01:26:52;13.68;;;6.55;;
20026;SDS011;10174;42.688;23.344;2022-10-31T01:29:18;17.77;;;6.65;;
20026;SDS011;10174;42.688;23.344;2022-10-31T01:31:43;15.57;;;7.53;;
20026;SDS011;10174;42.688;23.344;2022-10-31T01:34:11;14.40;;;7.07;;
20026;SDS011;10174;42.688;23.344;2022-10-31T01:36:39;17.35;;;7.63;;
20026;SDS011;10174;42.688;23.344;2022-10-31T01:39:05;15.00;;;7.78;;
20026;SDS011;10174;42.688;23.344;2022-10-31T01:41:34;20.70;;;8.82;;
20026;SDS011;10174;42.688;23.344;2022-10-31T01:44:03;19.05;;;9.30;;
20026;SDS011;10174;42.688;23.344;2022-10-31T01:49:51;19.85;;;9.48;;
20026;SDS011;10174;42.688;23.344;2022-10-31T01:52:22;17.25;;;8.88;;
20026;SDS011;10174;42.688;23.344;2022-10-31T01:55:16;21.08;;;9.32;;
20026;SDS011;10174;42.688;23.344;2022-10-31T01:57:50;20.63;;;10.15;;
20026;SDS011;10174;42.688;23.344;2022-10-31T02:00:20;21.40;;;10.23;;
20026;SDS011;10174;42.688;23.344;2022-10-31T02:02:46;17.75;;;9.80;;
20026;SDS011;10174;42.688;23.344;2022-10-31T02:05:18;22.35;;;10.63;;
20026;SDS011;10174;42.688;23.344;2022-10-31T02:08:21;26.63;;;11.25;;
20026;SDS011;10174;42.688;23.344;2022-10-31T02:10:59;24.60;;;11.68;;
20026;SDS011;10174;42.688;23.344;2022-10-31T02:13:26;26.08;;;11.02;;
20026;SDS011;10174;42.688;23.344;2022-10-31T02:15:54;27.20;;;12.25;;
20026;SDS011;10174;42.688;23.344;2022-10-31T02:18:22;20.13;;;10.63;;
20026;SDS011;10174;42.688;23.344;2022-10-31T02:21:07;23.17;;;12.02;;
20026;SDS011;10174;42.688;23.344;2022-10-31T02:28:58;32.20;;;12.82;;
20026;SDS011;10174;42.688;23.344;2022-10-31T02:34:26;26.23;;;12.30;;
20026;SDS011;10174;42.688;23.344;2022-10-31T02:37:12;25.42;;;12.77;;
20026;SDS011;10174;42.688;23.344;2022-10-31T02:39:44;28.30;;;12.20;;
20026;SDS011;10174;42.688;23.344;2022-10-31T02:42:27;27.83;;;12.57;;
20026;SDS011;10174;42.688;23.344;2022-10-31T02:47:43;33.67;;;12.63;;
20026;SDS011;10174;42.688;23.344;2022-10-31T02:50:17;30.00;;;12.32;;
20026;SDS011;10174;42.688;23.344;2022-10-31T02:52:50;24.45;;;12.32;;
20026;SDS011;10174;42.688;23.344;2022-10-31T02:57:52;23.75;;;11.85;;
20026;SDS011;10174;42.688;23.344;2022-10-31T03:00:22;26.65;;;12.20;;
20026;SDS011;10174;42.688;23.344;2022-10-31T03:05:54;25.20;;;11.13;;
20026;SDS011;10174;42.688;23.344;2022-10-31T03:08:30;28.95;;;12.18;;
20026;SDS011;10174;42.688;23.344;2022-10-31T03:11:00;27.20;;;11.43;;
20026;SDS011;10174;42.688;23.344;2022-10-31T03:13:47;25.95;;;11.70;;
20026;SDS011;10174;42.688;23.344;2022-10-31T03:16:16;29.88;;;12.38;;
20026;SDS011;10174;42.688;23.344;2022-10-31T03:18:49;23.00;;;10.75;;
20026;SDS011;10174;42.688;23.344;2022-10-31T03:21:22;23.80;;;11.70;;
20026;SDS011;10174;42.688;23.344;2022-10-31T03:23:52;22.55;;;10.82;;
20026;SDS011;10174;42.688;23.344;2022-10-31T03:26:19;27.58;;;11.80;;
20026;SDS011;10174;42.688;23.344;2022-10-31T03:28:50;28.92;;;11.82;;
20026;SDS011;10174;42.688;23.344;2022-10-31T03:31:20;31.73;;;11.13;;
20026;SDS011;10174;42.688;23.344;2022-10-31T03:33:48;25.77;;;11.77;;
20026;SDS011;10174;42.688;23.344;2022-10-31T03:36:16;21.83;;;11.20;;
20026;SDS011;10174;42.688;23.344;2022-10-31T03:38:42;23.20;;;11.32;;
20026;SDS011;10174;42.688;23.344;2022-10-31T03:41:12;30.45;;;14.60;;
20026;SDS011;10174;42.688;23.344;2022-10-31T03:43:42;32.00;;;15.32;;
20026;SDS011;10174;42.688;23.344;2022-10-31T03:46:13;32.50;;;14.00;;
20026;SDS011;10174;42.688;23.344;2022-10-31T03:48:38;29.75;;;12.40;;
20026;SDS011;10174;42.688;23.344;2022-10-31T03:53:34;26.35;;;11.18;;
20026;SDS011;10174;42.688;23.344;2022-10-31T03:56:19;24.10;;;11.07;;
20026;SDS011;10174;42.688;23.344;2022-10-31T03:59:06;28.38;;;11.57;;
20026;SDS011;10174;42.688;23.344;2022-10-31T04:01:38;31.55;;;12.48;;
20026;SDS011;10174;42.688;23.344;2022-10-31T04:04:07;25.98;;;11.80;;
20026;SDS011;10174;42.688;23.344;2022-10-31T04:06:34;26.98;;;11.48;;
20026;SDS011;10174;42.688;23.344;2022-10-31T04:09:03;25.30;;;12.45;;
20026;SDS011;10174;42.688;23.344;2022-10-31T04:11:33;33.42;;;12.23;;
20026;SDS011;10174;42.688;23.344;2022-10-31T04:14:03;30.15;;;12.10;;
20026;SDS011;10174;42.688;23.344;2022-10-31T04:16:30;30.10;;;11.38;;
20026;SDS011;10174;42.688;23.344;2022-10-31T04:18:55;25.55;;;11.60;;
20026;SDS011;10174;42.688;23.344;2022-10-31T04:21:26;24.83;;;11.45;;
20026;SDS011;10174;42.688;23.344;2022-10-31T04:23:53;30.42;;;12.77;;
20026;SDS011;10174;42.688;23.344;2022-10-31T04:26:19;24.20;;;11.30;;
20026;SDS011;10174;42.688;23.344;2022-10-31T04:28:44;27.10;;;11.88;;
20026;SDS011;10174;42.688;23.344;2022-10-31T04:31:13;30.63;;;12.35;;
20026;SDS011;10174;42.688;23.344;2022-10-31T04:33:39;28.98;;;12.40;;
20026;SDS011;10174;42.688;23.344;2022-10-31T04:36:04;31.85;;;12.45;;
20026;SDS011;10174;42.688;23.344;2022-10-31T04:40:55;40.13;;;12.52;;
20026;SDS011;10174;42.688;23.344;2022-10-31T04:43:21;40.28;;;12.32;;
20026;SDS011;10174;42.688;23.344;2022-10-31T04:45:47;33.70;;;12.98;;
20026;SDS011;10174;42.688;23.344;2022-10-31T04:48:12;36.42;;;12.93;;
20026;SDS011;10174;42.688;23.344;2022-10-31T04:50:37;36.45;;;14.50;;
20026;SDS011;10174;42.688;23.344;2022-10-31T04:53:03;44.50;;;13.48;;
20026;SDS011;10174;42.688;23.344;2022-10-31T04:55:28;31.90;;;13.95;;
20026;SDS011;10174;42.688;23.344;2022-10-31T04:57:54;34.67;;;14.30;;
20026;SDS011;10174;42.688;23.344;2022-10-31T05:00:20;38.17;;;14.82;;
20026;SDS011;10174;42.688;23.344;2022-10-31T05:02:56;45.05;;;15.57;;
20026;SDS011;10174;42.688;23.344;2022-10-31T05:05:27;40.70;;;15.98;;
20026;SDS011;10174;42.688;23.344;2022-10-31T05:07:54;31.58;;;14.85;;
20026;SDS011;10174;42.688;23.344;2022-10-31T05:10:20;36.03;;;14.43;;
20026;SDS011;10174;42.688;23.344;2022-10-31T05:15:14;38.58;;;15.85;;
20026;SDS011;10174;42.688;23.344;2022-10-31T05:17:40;40.03;;;14.85;;
20026;SDS011;10174;42.688;23.344;2022-10-31T05:20:06;40.53;;;15.13;;
20026;SDS011;10174;42.688;23.344;2022-10-31T05:22:31;37.65;;;15.02;;
20026;SDS011;10174;42.688;23.344;2022-10-31T05:24:57;32.53;;;14.40;;
20026;SDS011;10174;42.688;23.344;2022-10-31T05:27:22;38.53;;;15.50;;
20026;SDS011;10174;42.688;23.344;2022-10-31T05:29:48;39.00;;;16.20;;
20026;SDS011;10174;42.688;23.344;2022-10-31T05:32:13;29.98;;;15.25;;
20026;SDS011;10174;42.688;23.344;2022-10-31T05:34:38;33.45;;;17.40;;
20026;SDS011;10174;42.688;23.344;2022-10-31T05:37:04;44.58;;;19.38;;
20026;SDS011;10174;42.688;23.344;2022-10-31T05:39:29;42.78;;;19.83;;
20026;SDS011;10174;42.688;23.344;2022-10-31T05:41:54;53.10;;;18.70;;
20026;SDS011;10174;42.688;23.344;2022-10-31T05:44:20;43.83;;;17.15;;
20026;SDS011;10174;42.688;23.344;2022-10-31T05:46:46;41.70;;;16.08;;
20026;SDS011;10174;42.688;23.344;2022-10-31T05:49:11;45.63;;;18.80;;
20026;SDS011;10174;42.688;23.344;2022-10-31T05:51:37;36.08;;;18.60;;
20026;SDS011;10174;42.688;23.344;2022-10-31T05:54:02;46.85;;;20.75;;
20026;SDS011;10174;42.688;23.344;2022-10-31T05:56:28;55.78;;;22.10;;
20026;SDS011;10174;42.688;23.344;2022-10-31T05:58:53;56.20;;;22.27;;
20026;SDS011;10174;42.688;23.344;2022-10-31T06:01:18;52.78;;;23.40;;
20026;SDS011;10174;42.688;23.344;2022-10-31T06:03:44;53.45;;;22.75;;
20026;SDS011;10174;42.688;23.344;2022-10-31T06:06:09;132.65;;;55.45;;
20026;SDS011;10174;42.688;23.344;2022-10-31T06:11:00;55.17;;;20.08;;
20026;SDS011;10174;42.688;23.344;2022-10-31T06:13:25;54.53;;;21.63;;
20026;SDS011;10174;42.688;23.344;2022-10-31T06:15:51;39.45;;;19.48;;
20026;SDS011;10174;42.688;23.344;2022-10-31T06:18:16;42.67;;;20.50;;
20026;SDS011;10174;42.688;23.344;2022-10-31T06:20:41;45.05;;;20.67;;
20026;SDS011;10174;42.688;23.344;2022-10-31T06:23:07;43.13;;;19.73;;
20026;SDS011;10174;42.688;23.344;2022-10-31T06:25:32;52.55;;;19.30;;
20026;SDS011;10174;42.688;23.344;2022-10-31T06:27:58;40.22;;;18.17;;
20026;SDS011;10174;42.688;23.344;2022-10-31T06:30:24;47.85;;;18.35;;
20026;SDS011;10174;42.688;23.344;2022-10-31T06:32:50;45.72;;;16.98;;
20026;SDS011;10174;42.688;23.344;2022-10-31T06:35:16;40.50;;;17.75;;
20026;SDS011;10174;42.688;23.344;2022-10-31T06:37:41;51.33;;;18.25;;
20026;SDS011;10174;42.688;23.344;2022-10-31T06:40:07;37.35;;;16.88;;
20026;SDS011;10174;42.688;23.344;2022-10-31T06:42:32;39.13;;;16.90;;
20026;SDS011;10174;42.688;23.344;2022-10-31T06:44:58;36.60;;;15.38;;
20026;SDS011;10174;42.688;23.344;2022-10-31T06:47:23;37.15;;;17.20;;
20026;SDS011;10174;42.688;23.344;2022-10-31T06:49:48;30.17;;;16.65;;
20026;SDS011;10174;42.688;23.344;2022-10-31T06:52:14;42.33;;;21.88;;
20026;SDS011;10174;42.688;23.344;2022-10-31T06:54:39;43.33;;;19.48;;
20026;SDS011;10174;42.688;23.344;2022-10-31T06:57:05;32.67;;;18.38;;
20026;SDS011;10174;42.688;23.344;2022-10-31T07:01:57;36.95;;;18.45;;
20026;SDS011;10174;42.688;23.344;2022-10-31T07:04:22;32.75;;;17.92;;
20026;SDS011;10174;42.688;23.344;2022-10-31T07:06:50;34.85;;;18.17;;
20026;SDS011;10174;42.688;23.344;2022-10-31T07:09:16;38.83;;;20.75;;
20026;SDS011;10174;42.688;23.344;2022-10-31T07:11:42;55.20;;;27.80;;
20026;SDS011;10174;42.688;23.344;2022-10-31T07:14:07;33.65;;;19.55;;
20026;SDS011;10174;42.688;23.344;2022-10-31T07:16:32;40.85;;;20.73;;
20026;SDS011;10174;42.688;23.344;2022-10-31T07:18:58;41.30;;;22.52;;
20026;SDS011;10174;42.688;23.344;2022-10-31T07:21:23;36.95;;;19.92;;
20026;SDS011;10174;42.688;23.344;2022-10-31T07:23:49;40.75;;;19.73;;
20026;SDS011;10174;42.688;23.344;2022-10-31T07:26:14;35.95;;;18.55;;
20026;SDS011;10174;42.688;23.344;2022-10-31T07:31:05;41.47;;;20.00;;
20026;SDS011;10174;42.688;23.344;2022-10-31T07:33:30;42.13;;;21.00;;
20026;SDS011;10174;42.688;23.344;2022-10-31T07:35:56;43.28;;;19.10;;
20026;SDS011;10174;42.688;23.344;2022-10-31T07:38:21;33.63;;;19.15;;
20026;SDS011;10174;42.688;23.344;2022-10-31T07:43:15;36.03;;;20.48;;
20026;SDS011;10174;42.688;23.344;2022-10-31T07:45:40;40.47;;;21.23;;
20026;SDS011;10174;42.688;23.344;2022-10-31T07:48:06;35.45;;;21.08;;
20026;SDS011;10174;42.688;23.344;2022-10-31T07:50:31;45.67;;;22.15;;
20026;SDS011;10174;42.688;23.344;2022-10-31T07:53:01;41.65;;;22.05;;
20026;SDS011;10174;42.688;23.344;2022-10-31T07:55:29;46.72;;;21.48;;
20026;SDS011;10174;42.688;23.344;2022-10-31T07:58:16;46.17;;;21.90;;
20026;SDS011;10174;42.688;23.344;2022-10-31T08:00:42;48.05;;;21.33;;
20026;SDS011;10174;42.688;23.344;2022-10-31T08:03:11;48.90;;;22.17;;
20026;SDS011;10174;42.688;23.344;2022-10-31T08:05:40;60.60;;;32.22;;
20026;SDS011;10174;42.688;23.344;2022-10-31T08:08:06;47.67;;;22.83;;
20026;SDS011;10174;42.688;23.344;2022-10-31T08:10:32;53.45;;;27.42;;
20026;SDS011;10174;42.688;23.344;2022-10-31T08:13:00;51.10;;;23.77;;
20026;SDS011;10174;42.688;23.344;2022-10-31T08:15:33;47.08;;;25.50;;
20026;SDS011;10174;42.688;23.344;2022-10-31T08:18:01;40.65;;;22.35;;
20026;SDS011;10174;42.688;23.344;2022-10-31T08:20:27;48.50;;;21.60;;
20026;SDS011;10174;42.688;23.344;2022-10-31T08:22:53;43.00;;;21.05;;
20026;SDS011;10174;42.688;23.344;2022-10-31T08:25:23;48.90;;;21.27;;
20026;SDS011;10174;42.688;23.344;2022-10-31T08:27:52;46.08;;;21.45;;
20026;SDS011;10174;42.688;23.344;2022-10-31T08:30:19;47.20;;;20.77;;
20026;SDS011;10174;42.688;23.344;2022-10-31T08:32:46;40.35;;;20.13;;
20026;SDS011;10174;42.688;23.344;2022-10-31T08:35:12;46.83;;;21.38;;
20026;SDS011;10174;42.688;23.344;2022-10-31T08:37:37;40.55;;;22.08;;
20026;SDS011;10174;42.688;23.344;2022-10-31T08:40:03;48.67;;;24.05;;
20026;SDS011;10174;42.688;23.344;2022-10-31T08:42:29;43.25;;;21.52;;
20026;SDS011;10174;42.688;23.344;2022-10-31T08:44:54;39.90;;;21.88;;
20026;SDS011;10174;42.688;23.344;2022-10-31T08:47:19;48.00;;;23.15;;
20026;SDS011;10174;42.688;23.344;2022-10-31T08:49:45;45.38;;;21.17;;
20026;SDS011;10174;42.688;23.344;2022-10-31T08:52:10;51.15;;;22.42;;
20026;SDS011;10174;42.688;23.344;2022-10-31T08:54:35;46.00;;;21.25;;
20026;SDS011;10174;42.688;23.344;2022-10-31T08:57:01;37.90;;;20.20;;
20026;SDS011;10174;42.688;23.344;2022-10-31T08:59:26;41.35;;;19.90;;
20026;SDS011;10174;42.688;23.344;2022-10-31T09:01:52;52.67;;;20.73;;
20026;SDS011;10174;42.688;23.344;2022-10-31T09:04:17;46.63;;;23.08;;
20026;SDS011;10174;42.688;23.344;2022-10-31T09:06:42;43.28;;;22.10;;
20026;SDS011;10174;42.688;23.344;2022-10-31T09:09:08;38.58;;;20.38;;
20026;SDS011;10174;42.688;23.344;2022-10-31T09:11:33;42.85;;;20.98;;
20026;SDS011;10174;42.688;23.344;2022-10-31T09:13:58;41.92;;;20.30;;
20026;SDS011;10174;42.688;23.344;2022-10-31T09:16:24;44.33;;;20.45;;
20026;SDS011;10174;42.688;23.344;2022-10-31T09:18:49;36.58;;;18.67;;
20026;SDS011;10174;42.688;23.344;2022-10-31T09:21:15;42.88;;;19.42;;
20026;SDS011;10174;42.688;23.344;2022-10-31T09:23:40;42.28;;;19.67;;
20026;SDS011;10174;42.688;23.344;2022-10-31T09:26:06;35.25;;;19.27;;
20026;SDS011;10174;42.688;23.344;2022-10-31T09:28:31;44.20;;;18.75;;
20026;SDS011;10174;42.688;23.344;2022-10-31T09:30:57;41.17;;;18.92;;
20026;SDS011;10174;42.688;23.344;2022-10-31T09:33:22;39.03;;;16.13;;
20026;SDS011;10174;42.688;23.344;2022-10-31T09:35:48;33.17;;;16.30;;
20026;SDS011;10174;42.688;23.344;2022-10-31T09:38:15;39.80;;;18.10;;
20026;SDS011;10174;42.688;23.344;2022-10-31T09:40:45;39.15;;;19.05;;
20026;SDS011;10174;42.688;23.344;2022-10-31T09:45:49;30.42;;;14.18;;
20026;SDS011;10174;42.688;23.344;2022-10-31T09:51:03;23.58;;;12.98;;
20026;SDS011;10174;42.688;23.344;2022-10-31T09:56:20;25.52;;;11.85;;
20026;SDS011;10174;42.688;23.344;2022-10-31T09:58:48;35.85;;;12.18;;
20026;SDS011;10174;42.688;23.344;2022-10-31T10:04:29;34.42;;;12.38;;
20026;SDS011;10174;42.688;23.344;2022-10-31T10:06:58;19.50;;;11.80;;
20026;SDS011;10174;42.688;23.344;2022-10-31T10:09:28;23.83;;;11.60;;
20026;SDS011;10174;42.688;23.344;2022-10-31T10:17:13;22.10;;;10.63;;
20026;SDS011;10174;42.688;23.344;2022-10-31T10:20:07;16.73;;;9.10;;
20026;SDS011;10174;42.688;23.344;2022-10-31T10:25:24;18.50;;;8.73;;
20026;SDS011;10174;42.688;23.344;2022-10-31T10:33:09;27.15;;;11.18;;
20026;SDS011;10174;42.688;23.344;2022-10-31T10:35:50;20.55;;;10.00;;
20026;SDS011;10174;42.688;23.344;2022-10-31T10:40:52;29.63;;;17.80;;
20026;SDS011;10174;42.688;23.344;2022-10-31T10:43:33;21.17;;;7.30;;
20026;SDS011;10174;42.688;23.344;2022-10-31T10:48:49;24.13;;;6.50;;
20026;SDS011;10174;42.688;23.344;2022-10-31T10:51:23;12.23;;;5.32;;
20026;SDS011;10174;42.688;23.344;2022-10-31T10:59:08;13.30;;;5.80;;
20026;SDS011;10174;42.688;23.344;2022-10-31T11:01:36;16.73;;;8.50;;
20026;SDS011;10174;42.688;23.344;2022-10-31T11:04:02;23.23;;;8.40;;
20026;SDS011;10174;42.688;23.344;2022-10-31T11:06:30;18.55;;;5.93;;
20026;SDS011;10174;42.688;23.344;2022-10-31T11:08:55;15.70;;;5.90;;
20026;SDS011;10174;42.688;23.344;2022-10-31T11:11:24;14.27;;;5.43;;
20026;SDS011;10174;42.688;23.344;2022-10-31T11:13:58;18.02;;;6.00;;
20026;SDS011;10174;42.688;23.344;2022-10-31T11:16:37;18.75;;;7.05;;
20026;SDS011;10174;42.688;23.344;2022-10-31T11:19:13;18.95;;;7.93;;
20026;SDS011;10174;42.688;23.344;2022-10-31T11:21:46;15.40;;;6.32;;
20026;SDS011;10174;42.688;23.344;2022-10-31T11:24:35;16.83;;;6.50;;
20026;SDS011;10174;42.688;23.344;2022-10-31T11:27:14;24.73;;;5.97;;
20026;SDS011;10174;42.688;23.344;2022-10-31T11:29:47;23.90;;;6.00;;
20026;SDS011;10174;42.688;23.344;2022-10-31T11:32:18;15.45;;;5.13;;
20026;SDS011;10174;42.688;23.344;2022-10-31T11:34:46;21.05;;;5.90;;
20026;SDS011;10174;42.688;23.344;2022-10-31T11:37:20;16.15;;;5.60;;
20026;SDS011;10174;42.688;23.344;2022-10-31T11:39:58;21.65;;;5.47;;
20026;SDS011;10174;42.688;23.344;2022-10-31T11:42:27;10.40;;;4.47;;
20026;SDS011;10174;42.688;23.344;2022-10-31T11:45:05;12.48;;;5.40;;
20026;SDS011;10174;42.688;23.344;2022-10-31T11:47:40;15.70;;;4.93;;
20026;SDS011;10174;42.688;23.344;2022-10-31T11:50:11;13.18;;;4.82;;
20026;SDS011;10174;42.688;23.344;2022-10-31T11:52:46;15.23;;;5.25;;
20026;SDS011;10174;42.688;23.344;2022-10-31T11:57:43;13.68;;;4.88;;
20026;SDS011;10174;42.688;23.344;2022-10-31T12:02:48;7.80;;;4.32;;
20026;SDS011;10174;42.688;23.344;2022-10-31T12:05:22;15.75;;;4.90;;
20026;SDS011;10174;42.688;23.344;2022-10-31T12:07:52;10.63;;;4.88;;
20026;SDS011;10174;42.688;23.344;2022-10-31T12:10:19;10.27;;;4.60;;
20026;SDS011;10174;42.688;23.344;2022-10-31T12:15:54;14.77;;;4.20;;
20026;SDS011;10174;42.688;23.344;2022-10-31T12:24:16;12.57;;;4.82;;
20026;SDS011;10174;42.688;23.344;2022-10-31T12:27:03;20.35;;;8.90;;
20026;SDS011;10174;42.688;23.344;2022-10-31T12:45:58;15.73;;;5.80;;
20026;SDS011;10174;42.688;23.344;2022-10-31T12:51:09;10.90;;;4.78;;
20026;SDS011;10174;42.688;23.344;2022-10-31T13:04:46;18.50;;;4.70;;
20026;SDS011;10174;42.688;23.344;2022-10-31T13:07:21;17.90;;;5.28;;
20026;SDS011;10174;42.688;23.344;2022-10-31T13:10:15;32.33;;;7.18;;
20026;SDS011;10174;42.688;23.344;2022-10-31T13:12:47;23.90;;;6.22;;
20026;SDS011;10174;42.688;23.344;2022-10-31T13:15:27;15.50;;;5.03;;
20026;SDS011;10174;42.688;23.344;2022-10-31T13:18:00;20.17;;;5.25;;
20026;SDS011;10174;42.688;23.344;2022-10-31T13:20:32;11.18;;;4.78;;
20026;SDS011;10174;42.688;23.344;2022-10-31T13:25:55;13.68;;;4.65;;
20026;SDS011;10174;42.688;23.344;2022-10-31T13:31:03;22.10;;;5.70;;
20026;SDS011;10174;42.688;23.344;2022-10-31T13:33:38;14.32;;;4.28;;
20026;SDS011;10174;42.688;23.344;2022-10-31T13:38:52;28.95;;;13.25;;
20026;SDS011;10174;42.688;23.344;2022-10-31T13:46:49;16.83;;;4.80;;
20026;SDS011;10174;42.688;23.344;2022-10-31T13:51:53;17.88;;;6.28;;
20026;SDS011;10174;42.688;23.344;2022-10-31T13:54:33;52.17;;;20.92;;
20026;SDS011;10174;42.688;23.344;2022-10-31T13:56:59;22.70;;;9.27;;
20026;SDS011;10174;42.688;23.344;2022-10-31T13:59:25;31.77;;;11.02;;
20026;SDS011;10174;42.688;23.344;2022-10-31T14:01:57;16.67;;;5.65;;
20026;SDS011;10174;42.688;23.344;2022-10-31T14:04:47;15.32;;;6.43;;
20026;SDS011;10174;42.688;23.344;2022-10-31T14:07:18;22.00;;;7.65;;
20026;SDS011;10174;42.688;23.344;2022-10-31T14:09:59;26.30;;;8.07;;
20026;SDS011;10174;42.688;23.344;2022-10-31T14:12:44;27.73;;;10.10;;
20026;SDS011;10174;42.688;23.344;2022-10-31T14:17:45;18.95;;;7.93;;
20026;SDS011;10174;42.688;23.344;2022-10-31T14:22:37;46.38;;;20.45;;
20026;SDS011;10174;42.688;23.344;2022-10-31T14:28:00;22.08;;;9.27;;
20026;SDS011;10174;42.688;23.344;2022-10-31T14:30:27;20.75;;;7.03;;
20026;SDS011;10174;42.688;23.344;2022-10-31T14:32:56;36.38;;;14.05;;
20026;SDS011;10174;42.688;23.344;2022-10-31T14:35:26;47.45;;;18.45;;
20026;SDS011;10174;42.688;23.344;2022-10-31T14:43:59;34.50;;;7.63;;
20026;SDS011;10174;42.688;23.344;2022-10-31T14:46:30;39.15;;;8.63;;
20026;SDS011;10174;42.688;23.344;2022-10-31T14:49:12;24.50;;;7.47;;
20026;SDS011;10174;42.688;23.344;2022-10-31T14:54:25;36.47;;;8.70;;
20026;SDS011;10174;42.688;23.344;2022-10-31T14:56:56;37.08;;;8.75;;
20026;SDS011;10174;42.688;23.344;2022-10-31T14:59:31;38.83;;;7.90;;
20026;SDS011;10174;42.688;23.344;2022-10-31T15:02:11;37.53;;;8.98;;
20026;SDS011;10174;42.688;23.344;2022-10-31T15:05:10;36.88;;;9.88;;
20026;SDS011;10174;42.688;23.344;2022-10-31T15:07:47;40.63;;;10.00;;
20026;SDS011;10174;42.688;23.344;2022-10-31T15:10:21;29.25;;;7.78;;
20026;SDS011;10174;42.688;23.344;2022-10-31T15:12:47;36.25;;;8.63;;
20026;SDS011;10174;42.688;23.344;2022-10-31T15:17:58;34.03;;;8.60;;
20026;SDS011;10174;42.688;23.344;2022-10-31T15:20:26;43.80;;;10.23;;
20026;SDS011;10174;42.688;23.344;2022-10-31T15:22:55;47.65;;;10.60;;
20026;SDS011;10174;42.688;23.344;2022-10-31T15:25:23;41.80;;;10.38;;
20026;SDS011;10174;42.688;23.344;2022-10-31T15:27:57;43.50;;;10.15;;
20026;SDS011;10174;42.688;23.344;2022-10-31T15:30:23;39.40;;;9.00;;
20026;SDS011;10174;42.688;23.344;2022-10-31T15:32:51;36.35;;;9.45;;
20026;SDS011;10174;42.688;23.344;2022-10-31T15:35:22;42.20;;;10.02;;
20026;SDS011;10174;42.688;23.344;2022-10-31T15:37:51;50.65;;;12.48;;
20026;SDS011;10174;42.688;23.344;2022-10-31T15:40:18;48.75;;;11.63;;
20026;SDS011;10174;42.688;23.344;2022-10-31T15:42:56;49.38;;;11.35;;
20026;SDS011;10174;42.688;23.344;2022-10-31T15:45:24;62.22;;;11.13;;
20026;SDS011;10174;42.688;23.344;2022-10-31T15:47:53;46.70;;;9.63;;
20026;SDS011;10174;42.688;23.344;2022-10-31T15:52:52;55.45;;;10.60;;
20026;SDS011;10174;42.688;23.344;2022-10-31T15:57:51;43.20;;;10.30;;
20026;SDS011;10174;42.688;23.344;2022-10-31T16:03:00;48.70;;;8.38;;
20026;SDS011;10174;42.688;23.344;2022-10-31T16:05:38;37.33;;;9.65;;
20026;SDS011;10174;42.688;23.344;2022-10-31T16:11:13;37.08;;;7.85;;
20026;SDS011;10174;42.688;23.344;2022-10-31T16:13:59;36.00;;;7.78;;
20026;SDS011;10174;42.688;23.344;2022-10-31T16:16:49;23.88;;;6.82;;
20026;SDS011;10174;42.688;23.344;2022-10-31T16:19:21;32.28;;;9.73;;
20026;SDS011;10174;42.688;23.344;2022-10-31T16:21:52;51.38;;;9.35;;
20026;SDS011;10174;42.688;23.344;2022-10-31T16:24:30;32.90;;;9.05;;
20026;SDS011;10174;42.688;23.344;2022-10-31T16:27:03;32.85;;;8.10;;
20026;SDS011;10174;42.688;23.344;2022-10-31T16:29:43;46.00;;;8.50;;
20026;SDS011;10174;42.688;23.344;2022-10-31T16:37:41;46.28;;;9.77;;
20026;SDS011;10174;42.688;23.344;2022-10-31T16:40:07;34.42;;;8.05;;
20026;SDS011;10174;42.688;23.344;2022-10-31T16:42:35;45.53;;;8.73;;
20026;SDS011;10174;42.688;23.344;2022-10-31T16:45:00;38.60;;;8.07;;
20026;SDS011;10174;42.688;23.344;2022-10-31T16:47:26;33.47;;;8.32;;
20026;SDS011;10174;42.688;23.344;2022-10-31T16:49:51;37.55;;;9.02;;
20026;SDS011;10174;42.688;23.344;2022-10-31T16:52:17;43.08;;;9.63;;
20026;SDS011;10174;42.688;23.344;2022-10-31T16:54:42;40.97;;;9.65;;
20026;SDS011;10174;42.688;23.344;2022-10-31T16:57:12;38.58;;;9.95;;
20026;SDS011;10174;42.688;23.344;2022-10-31T16:59:40;40.85;;;11.48;;
20026;SDS011;10174;42.688;23.344;2022-10-31T17:02:06;52.95;;;11.10;;
20026;SDS011;10174;42.688;23.344;2022-10-31T17:04:41;43.95;;;9.95;;
20026;SDS011;10174;42.688;23.344;2022-10-31T17:07:06;43.83;;;10.27;;
20026;SDS011;10174;42.688;23.344;2022-10-31T17:09:32;48.90;;;10.90;;
20026;SDS011;10174;42.688;23.344;2022-10-31T17:11:57;49.00;;;11.05;;
20026;SDS011;10174;42.688;23.344;2022-10-31T17:14:23;51.20;;;11.02;;
20026;SDS011;10174;42.688;23.344;2022-10-31T17:16:49;37.40;;;9.90;;
20026;SDS011;10174;42.688;23.344;2022-10-31T17:19:14;44.47;;;10.70;;
20026;SDS011;10174;42.688;23.344;2022-10-31T17:21:40;40.80;;;10.02;;
20026;SDS011;10174;42.688;23.344;2022-10-31T17:24:06;32.63;;;9.50;;